createdAt,value
2023-05-09T00:01:11.095Z,15.15
2023-05-09T00:03:37.537Z,15.10
2023-05-09T00:06:04.232Z,15.07
2023-05-09T00:08:30.762Z,15.12
2023-05-09T00:10:57.236Z,15.08
2023-05-09T00:13:24.381Z,15.10
2023-05-09T00:15:53.994Z,15.10
2023-05-09T00:18:21.964Z,15.08
2023-05-09T00:20:49.087Z,15.04
2023-05-09T00:23:16.451Z,15.08
2023-05-09T00:25:43.481Z,15.09
2023-05-09T00:28:09.954Z,15.07
2023-05-09T00:30:36.965Z,15.05
2023-05-09T00:33:03.463Z,15.11
2023-05-09T00:35:31.189Z,15.10
2023-05-09T00:37:57.818Z,15.05
2023-05-09T00:40:24.350Z,15.06
2023-05-09T00:42:51.436Z,15.07
2023-05-09T00:45:18.063Z,15.08
2023-05-09T00:47:44.589Z,15.06
2023-05-09T00:50:11.090Z,15.05
2023-05-09T00:52:38.454Z,14.99
2023-05-09T00:55:08.391Z,15.03
2023-05-09T00:57:34.992Z,15.02
2023-05-09T01:00:01.731Z,15.02
2023-05-09T01:02:28.405Z,14.99
2023-05-09T01:04:55.013Z,14.97
2023-05-09T01:07:27.574Z,14.92
2023-05-09T01:10:04.730Z,14.86
2023-05-09T01:12:37.297Z,14.79
2023-05-09T01:15:21.964Z,14.79
2023-05-09T01:18:07.045Z,14.74
2023-05-09T01:20:36.317Z,14.70
2023-05-09T01:23:02.663Z,14.74
2023-05-09T01:25:43.702Z,14.72
2023-05-09T01:28:19.624Z,14.72
2023-05-09T01:30:46.919Z,14.73
2023-05-09T01:33:18.224Z,14.68
2023-05-09T01:35:50.179Z,14.67
2023-05-09T01:38:19.702Z,14.71
2023-05-09T01:40:49.308Z,14.61
2023-05-09T01:43:17.081Z,14.72
2023-05-09T01:45:45.008Z,14.73
2023-05-09T01:48:12.191Z,14.76
2023-05-09T01:50:40.039Z,14.78
2023-05-09T01:53:06.860Z,14.79
2023-05-09T01:55:34.760Z,14.79
2023-05-09T01:58:02.933Z,14.79
2023-05-09T02:00:29.510Z,14.73
2023-05-09T02:02:57.658Z,14.72
2023-05-09T02:05:27.120Z,14.71
2023-05-09T02:07:55.187Z,14.65
2023-05-09T02:10:25.271Z,14.58
2023-05-09T02:12:52.481Z,14.51
2023-05-09T02:15:19.121Z,14.50
2023-05-09T02:17:46.552Z,14.48
2023-05-09T02:20:14.281Z,14.43
2023-05-09T02:22:41.690Z,14.48
2023-05-09T02:25:10.448Z,14.41
2023-05-09T02:27:38.438Z,14.40
2023-05-09T02:30:08.965Z,14.36
2023-05-09T02:32:37.186Z,14.29
2023-05-09T02:35:04.948Z,14.18
2023-05-09T02:37:31.781Z,14.11
2023-05-09T02:39:58.487Z,13.98
2023-05-09T02:42:26.434Z,13.92
2023-05-09T02:44:53.679Z,13.84
2023-05-09T02:47:20.563Z,13.82
2023-05-09T02:49:47.830Z,13.75
2023-05-09T02:52:14.893Z,13.73
2023-05-09T02:54:41.312Z,13.66
2023-05-09T02:57:07.942Z,13.61
2023-05-09T02:59:34.520Z,13.52
2023-05-09T03:02:02.404Z,13.51
2023-05-09T03:04:29.553Z,13.51
2023-05-09T03:06:56.193Z,13.47
2023-05-09T03:09:25.353Z,13.45
2023-05-09T03:11:51.853Z,13.43
2023-05-09T03:14:18.337Z,13.42
2023-05-09T03:16:44.781Z,13.40
2023-05-09T03:19:20.622Z,13.38
2023-05-09T03:21:47.128Z,13.33
2023-05-09T03:24:13.859Z,13.30
2023-05-09T03:26:40.413Z,13.31
2023-05-09T03:29:06.906Z,13.30
2023-05-09T03:31:33.405Z,13.28
2023-05-09T03:45:01.269Z,13.20
2023-05-09T03:47:28.870Z,13.20
2023-05-09T03:50:10.963Z,13.18
2023-05-09T03:53:06.072Z,13.19
2023-05-09T03:55:34.294Z,13.16
2023-05-09T03:58:01.083Z,13.19
2023-05-09T04:00:27.757Z,13.17
2023-05-09T04:03:04.038Z,13.16
2023-05-09T04:05:36.609Z,13.16
2023-05-09T04:08:04.918Z,13.17
2023-05-09T04:10:32.741Z,13.22
2023-05-09T04:12:59.365Z,13.21
2023-05-09T04:15:26.339Z,13.26
2023-05-09T04:17:53.684Z,13.29
2023-05-09T04:20:20.391Z,13.38
2023-05-09T04:22:47.365Z,13.41
2023-05-09T04:25:16.872Z,13.45
2023-05-09T04:27:44.426Z,13.59
2023-05-09T04:30:11.489Z,13.66
2023-05-09T04:32:38.884Z,13.74
2023-05-09T04:35:06.474Z,13.81
2023-05-09T04:37:38.461Z,13.84
2023-05-09T04:40:08.971Z,13.91
2023-05-09T04:42:42.170Z,13.96
2023-05-09T04:45:09.383Z,14.01
2023-05-09T04:47:39.021Z,14.04
2023-05-09T04:50:06.056Z,14.03
2023-05-09T04:52:32.574Z,14.04
2023-05-09T04:54:59.081Z,14.03
2023-05-09T04:57:29.500Z,14.03
2023-05-09T04:59:57.879Z,14.07
2023-05-09T05:02:25.193Z,14.14
2023-05-09T05:04:56.112Z,14.23
2023-05-09T05:07:27.150Z,14.31
2023-05-09T05:09:53.777Z,14.33
2023-05-09T05:12:20.232Z,14.38
2023-05-09T05:14:47.124Z,14.44
2023-05-09T05:17:18.133Z,14.50
2023-05-09T05:19:45.822Z,14.57
2023-05-09T05:22:13.199Z,14.66
2023-05-09T05:24:42.008Z,14.70
2023-05-09T05:27:09.086Z,14.79
2023-05-09T05:29:35.772Z,14.81
2023-05-09T05:32:02.277Z,14.83
2023-05-09T05:34:28.721Z,14.81
2023-05-09T05:36:55.306Z,14.90
2023-05-09T05:39:21.948Z,15.01
2023-05-09T05:41:48.446Z,15.10
2023-05-09T05:44:15.584Z,15.18
2023-05-09T05:46:42.192Z,15.26
2023-05-09T05:49:09.490Z,15.32
2023-05-09T05:51:35.939Z,15.34
2023-05-09T05:54:04.415Z,15.39
2023-05-09T05:56:30.855Z,15.44
2023-05-09T05:58:57.715Z,15.49
2023-05-09T06:01:24.269Z,15.58
2023-05-09T06:03:54.668Z,15.62
2023-05-09T06:06:23.333Z,15.67
2023-05-09T06:08:49.977Z,15.69
2023-05-09T06:11:16.782Z,15.74
2023-05-09T06:13:43.471Z,15.72
2023-05-09T06:16:19.246Z,15.70
2023-05-09T06:18:48.497Z,15.73
2023-05-09T06:21:15.089Z,15.75
2023-05-09T06:23:51.052Z,15.75
2023-05-09T06:26:27.997Z,15.75
2023-05-09T06:28:54.501Z,15.80
2023-05-09T06:31:21.326Z,15.89
2023-05-09T06:33:48.402Z,15.95
2023-05-09T06:36:14.841Z,16.03
2023-05-09T06:38:41.353Z,16.14
2023-05-09T06:41:07.913Z,16.27
2023-05-09T06:43:34.290Z,16.35
2023-05-09T06:46:00.777Z,16.42
2023-05-09T06:48:27.226Z,16.42
2023-05-09T06:50:53.751Z,16.37
2023-05-09T06:53:20.276Z,16.36
2023-05-09T06:55:46.704Z,16.40
2023-05-09T06:58:13.305Z,16.45
2023-05-09T07:00:39.731Z,16.54
2023-05-09T07:03:07.576Z,16.58
2023-05-09T07:05:35.281Z,16.64
2023-05-09T07:08:01.788Z,16.70
2023-05-09T07:10:28.236Z,16.80
2023-05-09T07:12:54.740Z,16.83
2023-05-09T07:15:36.652Z,16.87
2023-05-09T07:18:06.744Z,16.93
2023-05-09T07:20:33.192Z,17.00
2023-05-09T07:22:59.903Z,17.07
2023-05-09T07:25:26.454Z,17.15
2023-05-09T07:27:52.991Z,17.19
2023-05-09T07:30:19.482Z,17.21
2023-05-09T07:32:46.068Z,17.22
2023-05-09T07:35:12.714Z,17.22
2023-05-09T07:37:39.432Z,17.22
2023-05-09T07:40:06.538Z,17.23
2023-05-09T07:42:33.092Z,17.28
2023-05-09T07:45:00.249Z,17.35
2023-05-09T07:47:26.775Z,17.47
2023-05-09T07:49:53.196Z,17.51
2023-05-09T07:52:19.614Z,17.58
2023-05-09T07:54:46.083Z,17.59
2023-05-09T07:57:12.646Z,17.59
2023-05-09T07:59:39.033Z,17.67
2023-05-09T08:02:05.513Z,17.69
2023-05-09T08:04:32.038Z,17.71
2023-05-09T08:06:59.359Z,17.66
2023-05-09T08:09:26.490Z,17.53
2023-05-09T08:11:52.951Z,17.52
2023-05-09T08:14:19.343Z,17.57
2023-05-09T08:16:46.018Z,17.60
2023-05-09T08:19:12.616Z,17.69
2023-05-09T08:21:39.006Z,17.78
2023-05-09T08:24:07.864Z,17.85
2023-05-09T08:26:35.188Z,17.95
2023-05-09T08:29:01.655Z,18.02
2023-05-09T08:31:28.199Z,18.13
2023-05-09T08:33:54.721Z,18.18
2023-05-09T08:36:21.137Z,18.26
2023-05-09T08:38:47.562Z,18.42
2023-05-09T08:41:14.147Z,18.56
2023-05-09T08:43:40.888Z,18.72
2023-05-09T08:46:09.436Z,18.87
2023-05-09T08:48:39.472Z,18.94
2023-05-09T08:51:06.655Z,18.99
2023-05-09T08:53:33.263Z,19.02
2023-05-09T08:56:01.553Z,19.04
2023-05-09T08:58:28.389Z,19.08
2023-05-09T09:00:55.669Z,19.14
2023-05-09T09:03:23.565Z,19.21
2023-05-09T09:05:51.086Z,19.24
2023-05-09T09:08:17.972Z,19.22
2023-05-09T09:10:47.632Z,19.11
2023-05-09T09:13:15.246Z,19.10
2023-05-09T09:15:44.019Z,19.05
2023-05-09T09:18:19.609Z,19.08
2023-05-09T09:20:48.856Z,19.10
2023-05-09T09:23:19.757Z,19.10
2023-05-09T09:25:59.488Z,19.13
2023-05-09T09:28:26.771Z,19.26
2023-05-09T09:30:53.599Z,19.30
2023-05-09T09:33:21.399Z,19.37
2023-05-09T09:35:52.095Z,19.35
2023-05-09T09:38:19.684Z,19.38
2023-05-09T09:40:52.092Z,19.34
2023-05-09T09:43:18.789Z,19.44
2023-05-09T09:45:49.998Z,19.45
2023-05-09T09:48:16.390Z,19.44
2023-05-09T09:50:42.875Z,19.51
2023-05-09T09:53:09.302Z,19.59
2023-05-09T09:55:35.892Z,19.68
2023-05-09T09:58:02.368Z,19.81
2023-05-09T10:00:29.875Z,19.95
2023-05-09T10:03:00.135Z,20.04
2023-05-09T10:05:27.271Z,20.12
2023-05-09T10:08:01.648Z,20.21
2023-05-09T10:10:29.648Z,20.16
2023-05-09T10:12:58.518Z,20.08
2023-05-09T10:15:27.608Z,20.11
2023-05-09T10:17:57.270Z,20.17
2023-05-09T10:20:25.104Z,20.16
2023-05-09T10:22:57.192Z,20.23
2023-05-09T10:26:08.786Z,20.34
2023-05-09T10:28:36.102Z,20.43
2023-05-09T10:31:28.316Z,20.46
2023-05-09T10:33:58.614Z,20.53
2023-05-09T10:36:25.184Z,20.49
2023-05-09T10:38:54.589Z,20.39
2023-05-09T10:41:24.161Z,20.35
2023-05-09T10:43:51.179Z,20.37
2023-05-09T10:46:18.059Z,20.47
2023-05-09T10:48:45.042Z,20.50
2023-05-09T10:51:12.459Z,20.55
2023-05-09T10:53:48.848Z,20.67
2023-05-09T10:56:35.409Z,20.72
2023-05-09T10:59:02.611Z,20.79
2023-05-09T11:01:37.502Z,20.87
2023-05-09T11:04:16.882Z,21.00
2023-05-09T11:06:45.928Z,21.07
2023-05-09T11:09:32.703Z,21.04
2023-05-09T11:12:05.211Z,21.15
2023-05-09T11:14:37.843Z,21.17
2023-05-09T11:17:06.553Z,21.16
2023-05-09T11:19:38.234Z,21.12
2023-05-09T11:22:22.160Z,21.08
2023-05-09T11:24:58.989Z,21.05
2023-05-09T11:27:26.744Z,21.02
2023-05-09T11:29:55.793Z,21.06
2023-05-09T11:32:22.534Z,21.06
2023-05-09T11:34:49.767Z,21.09
2023-05-09T11:37:17.793Z,21.14
2023-05-09T11:40:02.950Z,21.15
2023-05-09T11:42:29.535Z,21.17
2023-05-09T11:44:57.324Z,21.17
2023-05-09T11:47:24.274Z,21.16
2023-05-09T11:49:51.634Z,21.18
2023-05-09T11:52:21.729Z,21.10
2023-05-09T11:54:49.464Z,21.08
2023-05-09T11:57:19.267Z,21.09
2023-05-09T11:59:45.873Z,21.11
2023-05-09T12:02:13.104Z,21.10
2023-05-09T12:04:39.947Z,21.20
2023-05-09T12:07:06.531Z,21.28
2023-05-09T12:09:34.283Z,21.32
2023-05-09T12:12:01.191Z,21.34
2023-05-09T12:14:31.908Z,21.21
2023-05-09T12:16:58.759Z,21.11
2023-05-09T12:19:26.008Z,21.02
2023-05-09T12:22:00.350Z,20.93
2023-05-09T12:24:28.434Z,20.88
2023-05-09T12:26:56.446Z,20.80
2023-05-09T12:29:23.916Z,20.74
2023-05-09T12:31:51.046Z,20.83
2023-05-09T12:34:17.773Z,20.90
2023-05-09T12:36:50.866Z,21.04
2023-05-09T12:39:24.497Z,21.22
2023-05-09T12:42:01.196Z,21.27
2023-05-09T12:44:29.298Z,21.30
2023-05-09T12:47:00.804Z,21.40
2023-05-09T12:49:27.729Z,21.48
2023-05-09T12:51:55.788Z,21.48
2023-05-09T12:54:23.760Z,21.46
2023-05-09T12:56:52.464Z,21.40
2023-05-09T12:59:23.985Z,21.49
2023-05-09T13:01:58.514Z,21.58
2023-05-09T13:04:26.711Z,21.72
2023-05-09T13:06:57.694Z,21.78
2023-05-09T13:09:25.186Z,21.85
2023-05-09T13:11:52.257Z,21.87
2023-05-09T13:14:20.138Z,21.97
2023-05-09T13:16:47.074Z,22.02
2023-05-09T13:19:13.614Z,22.08
2023-05-09T13:21:40.318Z,22.15
2023-05-09T13:24:07.066Z,22.20
2023-05-09T13:26:33.956Z,22.26
2023-05-09T13:29:00.353Z,22.24
2023-05-09T13:31:26.933Z,22.22
2023-05-09T13:33:53.358Z,22.31
2023-05-09T13:36:19.876Z,22.34
2023-05-09T13:38:46.744Z,22.36
2023-05-09T13:41:20.182Z,22.44
2023-05-09T13:43:46.913Z,22.43
2023-05-09T13:46:13.603Z,22.50
2023-05-09T13:48:40.155Z,22.55
2023-05-09T13:51:07.718Z,22.61
2023-05-09T13:53:34.699Z,22.66
2023-05-09T13:56:02.094Z,22.68
2023-05-09T13:58:28.939Z,22.68
2023-05-09T14:00:55.428Z,22.56
2023-05-09T14:03:21.861Z,22.43
2023-05-09T14:05:49.358Z,22.22
2023-05-09T14:08:16.512Z,22.13
2023-05-09T14:10:42.974Z,22.04
2023-05-09T14:13:09.409Z,21.84
2023-05-09T14:15:36.013Z,21.54
2023-05-09T14:18:02.541Z,21.34
2023-05-09T14:20:29.081Z,21.06
2023-05-09T14:22:59.578Z,20.87
2023-05-09T14:25:26.592Z,20.70
2023-05-09T14:27:53.974Z,20.65
2023-05-09T14:30:20.485Z,20.56
2023-05-09T14:32:47.777Z,20.46
2023-05-09T14:35:14.657Z,20.39
2023-05-09T14:37:41.392Z,20.33
2023-05-09T14:40:09.745Z,20.30
2023-05-09T14:42:36.804Z,20.30
2023-05-09T14:45:03.923Z,20.33
2023-05-09T14:47:30.551Z,20.34
2023-05-09T14:49:57.031Z,20.36
2023-05-09T14:52:23.427Z,20.41
2023-05-09T14:54:49.880Z,20.44
2023-05-09T14:57:16.281Z,20.49
2023-05-09T14:59:42.943Z,20.56
2023-05-09T15:02:09.388Z,20.62
2023-05-09T15:04:35.859Z,20.67
2023-05-09T15:07:02.405Z,20.68
2023-05-09T15:09:29.033Z,20.65
2023-05-09T15:11:55.683Z,20.56
2023-05-09T15:14:22.282Z,20.49
2023-05-09T15:16:48.845Z,20.37
2023-05-09T15:19:15.379Z,20.33
2023-05-09T15:21:41.830Z,20.32
2023-05-09T15:24:08.542Z,20.29
2023-05-09T15:26:34.946Z,20.27
2023-05-09T15:29:01.590Z,20.20
2023-05-09T15:31:33.003Z,20.16
2023-05-09T15:33:59.784Z,20.20
2023-05-09T15:36:29.311Z,20.22
2023-05-09T15:38:55.953Z,20.28
2023-05-09T15:41:23.004Z,20.30
2023-05-09T15:43:49.754Z,20.26
2023-05-09T15:46:17.109Z,20.19
2023-05-09T15:48:43.889Z,20.13
2023-05-09T15:51:10.360Z,20.08
2023-05-09T15:53:36.818Z,19.97
2023-05-09T15:56:03.625Z,19.90
2023-05-09T15:58:30.554Z,19.81
2023-05-09T16:00:56.995Z,19.72
2023-05-09T16:03:24.684Z,19.65
2023-05-09T16:05:51.472Z,19.56
2023-05-09T16:08:17.991Z,19.51
2023-05-09T16:10:48.797Z,19.48
2023-05-09T16:13:17.709Z,19.44
2023-05-09T16:15:45.252Z,19.41
2023-05-09T16:18:12.069Z,19.37
2023-05-09T16:20:38.478Z,19.30
2023-05-09T16:23:04.955Z,19.21
2023-05-09T16:25:33.412Z,19.15
2023-05-09T16:28:01.113Z,19.10
2023-05-09T16:30:27.528Z,19.06
2023-05-09T16:32:54.000Z,19.04
2023-05-09T16:35:20.472Z,18.97
2023-05-09T16:37:47.130Z,18.93
2023-05-09T16:40:14.930Z,18.92
2023-05-09T16:42:42.804Z,18.94
2023-05-09T16:45:09.856Z,18.91
2023-05-09T16:47:36.451Z,18.86
2023-05-09T16:50:04.541Z,18.87
2023-05-09T16:52:31.172Z,18.86
2023-05-09T16:54:59.260Z,18.86
2023-05-09T16:57:25.964Z,18.86
2023-05-09T16:59:53.309Z,18.83
2023-05-09T17:02:19.862Z,18.82
2023-05-09T17:04:46.347Z,18.79
2023-05-09T17:07:14.385Z,18.71
2023-05-09T17:09:41.006Z,18.66
2023-05-09T17:12:07.406Z,18.62
2023-05-09T17:14:33.881Z,18.54
2023-05-09T17:17:00.548Z,18.42
2023-05-09T17:19:27.069Z,18.29
2023-05-09T17:21:55.889Z,18.18
2023-05-09T17:24:22.275Z,18.05
2023-05-09T17:26:50.079Z,17.96
2023-05-09T17:29:16.515Z,17.77
2023-05-09T17:31:43.038Z,17.70
2023-05-09T17:34:09.551Z,17.62
2023-05-09T17:36:36.191Z,17.55
2023-05-09T17:39:02.634Z,17.51
2023-05-09T17:41:29.061Z,17.43
2023-05-09T17:43:57.307Z,17.30
2023-05-09T17:46:24.251Z,17.24
2023-05-09T17:48:50.896Z,17.10
2023-05-09T17:51:17.578Z,16.98
2023-05-09T17:53:44.129Z,16.92
2023-05-09T17:56:10.642Z,16.97
2023-05-09T17:58:37.053Z,16.98
2023-05-09T18:01:03.504Z,16.97
2023-05-09T18:03:32.180Z,16.97
2023-05-09T18:06:00.181Z,16.94
2023-05-09T18:08:26.682Z,16.87
2023-05-09T18:10:56.514Z,16.86
2023-05-09T18:13:23.367Z,16.84
2023-05-09T18:15:49.942Z,16.80
2023-05-09T18:18:16.473Z,16.78
2023-05-09T18:20:42.932Z,16.73
2023-05-09T18:23:10.335Z,16.73
2023-05-09T18:25:38.513Z,16.73
2023-05-09T18:28:05.269Z,16.66
2023-05-09T18:30:31.666Z,16.62
2023-05-09T18:33:00.184Z,16.64
2023-05-09T18:35:26.801Z,16.64
2023-05-09T18:37:53.306Z,16.61
2023-05-09T18:40:19.957Z,16.57
2023-05-09T18:42:46.493Z,16.50
2023-05-09T18:45:13.173Z,16.38
2023-05-09T18:47:39.727Z,16.28
2023-05-09T18:50:07.204Z,16.19
2023-05-09T18:52:34.247Z,16.11
2023-05-09T18:55:00.694Z,15.94
2023-05-09T18:57:27.760Z,15.83
2023-05-09T18:59:54.207Z,15.78
2023-05-09T19:02:21.047Z,15.63
2023-05-09T19:04:48.063Z,15.55
2023-05-09T19:07:15.038Z,15.58
2023-05-09T19:09:41.801Z,15.53
2023-05-09T19:12:09.661Z,15.45
2023-05-09T19:14:37.750Z,15.39
2023-05-09T19:17:05.573Z,15.45
2023-05-09T19:19:32.302Z,15.49
2023-05-09T19:21:58.969Z,15.50
2023-05-09T19:24:25.502Z,15.40
2023-05-09T19:26:51.962Z,15.32
2023-05-09T19:29:18.678Z,15.30
2023-05-09T19:31:45.303Z,15.26
2023-05-09T19:34:11.778Z,15.24
2023-05-09T19:36:38.202Z,15.21
2023-05-09T19:39:05.467Z,15.20
2023-05-09T19:41:32.044Z,15.17
2023-05-09T19:43:59.275Z,15.06
2023-05-09T19:46:25.730Z,15.02
2023-05-09T19:48:52.276Z,15.04
2023-05-09T19:51:18.755Z,15.11
2023-05-09T20:11:22.810Z,15.20
2023-05-09T20:13:53.419Z,15.21
2023-05-09T20:16:21.243Z,15.17
2023-05-09T20:18:49.991Z,15.14
2023-05-09T20:21:18.052Z,15.17
2023-05-09T20:23:44.583Z,15.16
2023-05-09T20:26:11.168Z,15.17
2023-05-09T20:28:38.183Z,15.15
2023-05-09T20:31:04.875Z,15.05
2023-05-09T20:33:31.631Z,15.05
2023-05-09T20:35:58.101Z,15.05
2023-05-09T20:38:24.602Z,15.02
2023-05-09T20:40:51.105Z,15.03
2023-05-09T20:43:18.086Z,15.04
2023-05-09T20:45:44.570Z,15.09
2023-05-09T20:48:11.366Z,15.08
2023-05-09T20:50:37.819Z,15.10
2023-05-09T20:53:04.292Z,15.02
2023-05-09T20:55:30.756Z,14.95
2023-05-09T20:57:57.342Z,14.98
2023-05-09T21:03:10.057Z,15.01
2023-05-09T21:05:36.658Z,15.02
2023-05-09T21:08:03.193Z,14.94
2023-05-09T21:10:29.639Z,14.98
2023-05-09T21:12:56.195Z,14.96
2023-05-09T21:15:22.645Z,14.93
2023-05-09T21:17:49.297Z,14.91
2023-05-09T21:20:16.308Z,14.92
2023-05-09T21:22:43.184Z,14.89
2023-05-09T21:25:09.778Z,14.94
2023-05-09T21:27:36.351Z,14.98
2023-05-09T21:30:02.943Z,14.91
2023-05-09T21:32:29.482Z,14.96
2023-05-09T21:34:56.005Z,14.97
2023-05-09T21:37:22.739Z,14.93
2023-05-09T21:39:49.210Z,14.92
2023-05-09T21:42:16.129Z,14.91
2023-05-09T21:44:42.654Z,14.89
2023-05-09T21:47:10.156Z,14.85
2023-05-09T21:49:36.621Z,14.83
2023-05-09T21:52:03.432Z,14.88
2023-05-09T21:54:29.982Z,14.82
2023-05-09T21:56:56.394Z,14.83
2023-05-09T21:59:22.862Z,14.83
2023-05-09T22:01:49.457Z,14.86
2023-05-09T22:04:15.996Z,14.85
2023-05-09T22:06:42.623Z,14.84
2023-05-09T22:09:09.882Z,14.84
2023-05-09T22:11:36.636Z,14.81
2023-05-09T22:14:03.519Z,14.86
2023-05-09T22:16:30.313Z,14.78
2023-05-09T22:23:22.181Z,14.63
2023-05-09T22:25:48.599Z,14.63
2023-05-09T22:28:15.193Z,14.68
2023-05-09T22:30:41.680Z,14.70
2023-05-09T22:33:08.198Z,14.62
2023-05-09T22:35:35.476Z,14.56
2023-05-09T22:38:03.376Z,14.51
2023-05-09T22:40:30.206Z,14.46
2023-05-09T22:42:56.648Z,14.40
2023-05-09T22:45:23.065Z,14.34
2023-05-09T22:47:49.499Z,14.31
2023-05-09T22:50:17.362Z,14.25
2023-05-09T22:52:44.099Z,14.21
2023-05-09T22:55:11.324Z,14.18
2023-05-09T22:57:37.810Z,14.15
2023-05-09T23:00:06.044Z,14.16
2023-05-09T23:02:32.626Z,14.11
2023-05-09T23:04:59.184Z,14.07
2023-05-09T23:07:25.792Z,14.06
2023-05-09T23:09:52.320Z,14.01
2023-05-09T23:12:18.767Z,14.03
2023-05-09T23:14:46.046Z,14.00
2023-05-09T23:17:12.474Z,13.97
2023-05-09T23:19:38.919Z,13.93
2023-05-09T23:22:05.457Z,13.92
2023-05-09T23:24:31.959Z,13.92
2023-05-09T23:26:58.599Z,13.94
2023-05-09T23:29:25.133Z,13.84
2023-05-09T23:31:51.629Z,13.88
2023-05-09T23:34:18.177Z,13.81
2023-05-09T23:36:44.623Z,13.81
2023-05-09T23:39:11.996Z,13.76
2023-05-09T23:41:38.441Z,13.71
2023-05-09T23:44:06.140Z,13.69
2023-05-09T23:46:32.632Z,13.67
2023-05-09T23:48:59.495Z,13.61
2023-05-09T23:51:26.088Z,13.59
2023-05-09T23:53:52.508Z,13.52
2023-05-09T23:56:19.409Z,13.52
2023-05-09T23:58:45.882Z,13.48
